createdAt,value
2022-08-22T00:00:25.516Z,19.19
2022-08-22T00:02:46.808Z,20.52
2022-08-22T00:02:47.028Z,20.25
2022-08-22T00:03:15.813Z,19.41
2022-08-22T00:06:14.999Z,19.17
2022-08-22T00:09:00.071Z,19.13
2022-08-22T00:12:17.305Z,19.13
2022-08-22T00:15:43.071Z,19.13
2022-08-22T00:18:06.533Z,19.04
2022-08-22T00:20:49.133Z,19.02
2022-08-22T00:23:27.849Z,19.04
2022-08-22T00:26:17.625Z,19.03
2022-08-22T00:28:47.111Z,19.01
2022-08-22T00:31:42.618Z,19.02
2022-08-22T00:34:12.263Z,19.03
2022-08-22T00:36:57.659Z,19.01
2022-08-22T00:39:49.813Z,19.04
2022-08-22T00:42:31.619Z,19.02
2022-08-22T00:45:17.442Z,18.99
2022-08-22T00:48:14.558Z,19.03
2022-08-22T00:50:58.094Z,19.06
2022-08-22T00:53:46.880Z,19.03
2022-08-22T00:56:29.432Z,19.03
2022-08-22T00:59:12.018Z,18.92
2022-08-22T01:02:14.776Z,18.91
2022-08-22T01:04:49.899Z,18.90
2022-08-22T01:07:24.197Z,18.89
2022-08-22T01:10:19.169Z,18.89
2022-08-22T01:13:04.123Z,18.86
2022-08-22T01:15:35.872Z,18.79
2022-08-22T01:18:20.550Z,18.84
2022-08-22T01:21:05.825Z,18.85
2022-08-22T01:24:03.272Z,18.81
2022-08-22T01:26:59.055Z,18.80
2022-08-22T01:30:07.075Z,18.82
2022-08-22T01:33:01.889Z,18.82
2022-08-22T01:35:56.216Z,18.80
2022-08-22T01:38:47.795Z,18.74
2022-08-22T01:41:34.610Z,18.71
2022-08-22T01:44:04.022Z,18.73
2022-08-22T01:46:48.997Z,18.72
2022-08-22T01:49:28.041Z,18.74
2022-08-22T01:52:15.185Z,18.75
2022-08-22T01:54:59.311Z,18.70
2022-08-22T01:57:26.896Z,18.61
2022-08-22T01:59:57.934Z,18.58
2022-08-22T02:02:44.915Z,18.61
2022-08-22T02:05:23.865Z,18.62
2022-08-22T02:07:57.896Z,18.63
2022-08-22T02:11:12.887Z,18.57
2022-08-22T02:13:57.036Z,18.53
2022-08-22T02:16:38.686Z,18.56
2022-08-22T02:19:14.053Z,18.57
2022-08-22T02:21:59.629Z,18.57
2022-08-22T02:25:04.350Z,18.59
2022-08-22T02:27:50.344Z,18.55
2022-08-22T02:30:26.083Z,18.56
2022-08-22T02:32:59.405Z,18.50
2022-08-22T02:35:36.833Z,18.43
2022-08-22T02:38:15.062Z,18.41
2022-08-22T02:40:51.636Z,18.38
2022-08-22T02:43:27.017Z,18.40
2022-08-22T02:46:05.555Z,18.39
2022-08-22T02:48:51.676Z,18.40
2022-08-22T02:51:33.102Z,18.37
2022-08-22T02:54:26.508Z,18.40
2022-08-22T02:57:14.029Z,18.39
2022-08-22T03:00:31.414Z,18.41
2022-08-22T03:03:06.691Z,18.34
2022-08-22T03:05:36.035Z,18.34
2022-08-22T03:08:13.353Z,18.26
2022-08-22T03:10:45.491Z,18.29
2022-08-22T03:13:41.169Z,18.30
2022-08-22T03:16:18.279Z,18.29
2022-08-22T03:19:02.902Z,18.26
2022-08-22T03:21:44.937Z,18.27
2022-08-22T03:24:25.697Z,18.28
2022-08-22T03:26:57.765Z,18.29
2022-08-22T03:29:29.005Z,18.24
2022-08-22T03:32:15.438Z,18.26
2022-08-22T03:35:08.890Z,18.28
2022-08-22T03:37:35.169Z,18.19
2022-08-22T03:40:07.744Z,18.13
2022-08-22T03:42:39.933Z,18.17
2022-08-22T03:45:21.692Z,18.14
2022-08-22T03:48:25.623Z,18.18
2022-08-22T03:51:09.030Z,18.17
2022-08-22T03:53:46.458Z,18.12
2022-08-22T03:57:06.513Z,18.08
2022-08-22T03:59:57.640Z,18.10
2022-08-22T04:02:45.611Z,18.10
2022-08-22T04:05:34.221Z,18.03
2022-08-22T04:08:09.506Z,17.94
2022-08-22T04:11:07.970Z,17.95
2022-08-22T04:13:57.778Z,18.02
2022-08-22T04:16:59.946Z,18.08
2022-08-22T04:19:42.507Z,18.10
2022-08-22T04:22:23.826Z,18.11
2022-08-22T04:25:07.103Z,18.03
2022-08-22T04:28:01.111Z,18.10
2022-08-22T04:30:43.333Z,18.10
2022-08-22T04:33:33.220Z,18.09
2022-08-22T04:36:05.162Z,18.08
2022-08-22T04:38:42.710Z,18.09
2022-08-22T04:41:14.559Z,18.10
2022-08-22T04:44:02.930Z,18.10
2022-08-22T04:46:42.342Z,18.05
2022-08-22T04:49:25.110Z,18.02
2022-08-22T04:52:24.240Z,18.02
2022-08-22T04:55:10.796Z,18.03
2022-08-22T04:57:56.748Z,18.05
2022-08-22T05:00:23.966Z,17.99
2022-08-22T05:02:57.898Z,18.00
2022-08-22T05:05:32.280Z,18.01
2022-08-22T05:08:02.866Z,18.00
2022-08-22T05:10:40.736Z,17.99
2022-08-22T05:13:24.315Z,17.99
2022-08-22T05:15:57.102Z,17.99
2022-08-22T05:18:32.046Z,17.99
2022-08-22T05:21:02.142Z,17.99
2022-08-22T05:23:41.513Z,17.98
2022-08-22T05:26:09.528Z,17.98
2022-08-22T05:28:40.539Z,17.98
2022-08-22T05:31:10.988Z,17.98
2022-08-22T05:33:59.305Z,18.00
2022-08-22T05:36:29.202Z,17.96
2022-08-22T05:39:03.027Z,17.97
2022-08-22T05:41:35.980Z,17.99
2022-08-22T05:44:03.094Z,17.98
2022-08-22T05:46:41.613Z,17.98
2022-08-22T05:49:19.037Z,17.95
2022-08-22T05:52:07.635Z,17.99
2022-08-22T05:54:48.082Z,17.98
2022-08-22T05:57:32.691Z,17.99
2022-08-22T06:00:07.604Z,18.03
2022-08-22T06:02:56.059Z,18.06
2022-08-22T06:05:29.196Z,18.03
2022-08-22T06:08:03.151Z,18.03
2022-08-22T06:10:48.241Z,18.03
2022-08-22T06:13:29.878Z,18.06
2022-08-22T06:16:10.221Z,18.03
2022-08-22T06:18:42.213Z,18.04
2022-08-22T06:21:25.157Z,18.07
2022-08-22T06:24:00.843Z,18.06
2022-08-22T06:26:37.999Z,18.04
2022-08-22T06:29:07.293Z,18.07
2022-08-22T06:31:42.972Z,18.07
2022-08-22T06:34:14.291Z,18.10
2022-08-22T06:36:46.444Z,18.14
2022-08-22T06:39:16.346Z,18.16
2022-08-22T06:41:52.242Z,18.24
2022-08-22T06:44:23.864Z,18.28
2022-08-22T06:46:55.273Z,18.30
2022-08-22T06:49:23.509Z,18.30
2022-08-22T06:51:51.148Z,18.33
2022-08-22T06:54:25.131Z,18.37
2022-08-22T06:56:55.300Z,18.32
2022-08-22T06:59:27.273Z,18.33
2022-08-22T07:02:16.489Z,18.32
2022-08-22T07:04:43.950Z,18.35
2022-08-22T07:07:10.399Z,18.35
2022-08-22T07:09:40.291Z,18.36
2022-08-22T07:12:29.201Z,18.37
2022-08-22T07:15:01.677Z,18.40
2022-08-22T07:17:32.670Z,18.40
2022-08-22T07:20:10.566Z,18.43
2022-08-22T07:22:37.916Z,18.45
2022-08-22T07:25:15.954Z,18.47
2022-08-22T07:28:03.933Z,18.49
2022-08-22T07:30:58.317Z,18.61
2022-08-22T07:33:40.586Z,18.64
2022-08-22T07:36:22.967Z,18.70
2022-08-22T07:39:24.804Z,18.77
2022-08-22T07:42:32.631Z,18.83
2022-08-22T07:45:14.717Z,18.85
2022-08-22T07:47:48.027Z,18.87
2022-08-22T07:50:26.722Z,18.91
2022-08-22T07:53:01.159Z,19.06
2022-08-22T07:55:28.565Z,19.15
2022-08-22T07:58:04.905Z,19.24
2022-08-22T08:00:32.375Z,19.34
2022-08-22T08:03:05.664Z,19.52
2022-08-22T08:05:36.139Z,19.68
2022-08-22T08:08:12.332Z,19.70
2022-08-22T08:10:42.561Z,19.73
2022-08-22T08:13:16.700Z,19.82
2022-08-22T08:15:45.658Z,19.81
2022-08-22T08:18:19.343Z,19.92
2022-08-22T08:20:51.905Z,20.10
2022-08-22T08:23:22.244Z,20.19
2022-08-22T08:25:57.443Z,20.36
2022-08-22T08:28:37.923Z,20.36
2022-08-22T08:31:23.114Z,20.42
2022-08-22T08:33:53.842Z,20.48
2022-08-22T08:36:48.204Z,20.57
2022-08-22T08:39:35.795Z,20.68
2022-08-22T08:42:32.205Z,20.74
2022-08-22T08:45:37.396Z,20.82
2022-08-22T08:48:36.292Z,20.98
2022-08-22T08:51:49.013Z,21.05
2022-08-22T08:54:34.888Z,21.12
2022-08-22T08:57:15.377Z,21.15
2022-08-22T08:59:45.314Z,21.16
2022-08-22T09:02:50.184Z,21.21
2022-08-22T09:05:56.449Z,21.28
2022-08-22T09:09:07.168Z,21.37
2022-08-22T09:11:57.451Z,21.52
2022-08-22T09:14:35.940Z,21.62
2022-08-22T09:17:21.223Z,21.81
2022-08-22T09:20:17.840Z,21.91
2022-08-22T09:22:58.343Z,22.05
2022-08-22T09:25:50.796Z,22.15
2022-08-22T09:28:40.451Z,22.16
2022-08-22T09:31:47.391Z,22.22
2022-08-22T09:34:26.001Z,22.30
2022-08-22T09:37:25.678Z,22.43
2022-08-22T09:40:17.267Z,22.53
2022-08-22T09:43:11.956Z,22.56
2022-08-22T09:46:01.946Z,22.63
2022-08-22T09:48:34.557Z,22.84
2022-08-22T09:51:31.525Z,22.96
2022-08-22T09:54:36.747Z,23.22
2022-08-22T09:57:29.977Z,23.08
2022-08-22T10:00:22.403Z,22.89
2022-08-22T10:03:27.774Z,23.00
2022-08-22T10:06:11.869Z,22.96
2022-08-22T10:08:59.911Z,23.15
2022-08-22T10:11:43.564Z,23.28
2022-08-22T10:14:22.335Z,23.23
2022-08-22T10:16:52.249Z,23.02
2022-08-22T10:19:32.406Z,22.94
2022-08-22T10:22:20.922Z,22.89
2022-08-22T10:24:51.790Z,22.99
2022-08-22T10:27:32.512Z,23.28
2022-08-22T10:30:08.554Z,23.60
2022-08-22T10:32:53.573Z,23.86
2022-08-22T10:35:35.365Z,24.05
2022-08-22T10:38:23.812Z,24.12
2022-08-22T10:41:25.244Z,24.18
2022-08-22T10:43:56.447Z,24.07
2022-08-22T10:46:52.025Z,24.00
2022-08-22T10:49:32.357Z,23.92
2022-08-22T10:52:15.618Z,23.89
2022-08-22T10:54:51.274Z,23.93
2022-08-22T10:57:40.407Z,23.83
2022-08-22T11:00:46.541Z,23.72
2022-08-22T11:03:39.473Z,23.70
2022-08-22T11:06:13.874Z,23.83
2022-08-22T11:09:04.275Z,23.84
2022-08-22T11:11:58.514Z,23.90
2022-08-22T11:14:35.576Z,23.90
2022-08-22T11:17:30.979Z,23.83
2022-08-22T11:20:28.619Z,23.84
2022-08-22T11:23:12.371Z,23.99
2022-08-22T11:26:05.815Z,23.95
2022-08-22T11:29:11.271Z,23.90
2022-08-22T11:31:51.516Z,23.99
2022-08-22T11:34:57.273Z,23.99
2022-08-22T11:37:42.431Z,24.40
2022-08-22T11:40:37.544Z,24.62
2022-08-22T11:43:07.735Z,24.33
2022-08-22T11:45:49.273Z,24.27
2022-08-22T11:48:21.957Z,24.30
2022-08-22T11:51:13.402Z,24.54
2022-08-22T11:53:49.414Z,24.49
2022-08-22T11:56:32.111Z,24.54
2022-08-22T11:59:02.450Z,24.63
2022-08-22T12:01:41.610Z,24.50
2022-08-22T12:04:31.200Z,24.55
2022-08-22T12:07:12.895Z,24.87
2022-08-22T12:09:52.090Z,25.12
2022-08-22T12:12:52.594Z,25.09
2022-08-22T12:15:40.467Z,25.04
2022-08-22T12:18:21.331Z,25.03
2022-08-22T12:21:09.431Z,24.90
2022-08-22T12:23:57.727Z,24.86
2022-08-22T12:26:46.454Z,24.79
2022-08-22T12:29:19.863Z,24.64
2022-08-22T12:32:20.644Z,24.67
2022-08-22T12:35:14.443Z,24.74
2022-08-22T12:37:56.681Z,24.92
2022-08-22T12:40:50.768Z,25.17
2022-08-22T12:43:42.770Z,25.29
2022-08-22T12:46:17.182Z,25.28
2022-08-22T12:49:07.667Z,25.12
2022-08-22T12:52:11.774Z,24.87
2022-08-22T12:55:06.699Z,24.92
2022-08-22T12:57:54.444Z,25.14
2022-08-22T13:00:40.351Z,25.26
2022-08-22T13:03:11.860Z,25.16
2022-08-22T13:05:44.381Z,25.20
2022-08-22T13:08:25.102Z,25.47
2022-08-22T13:11:01.427Z,25.71
2022-08-22T13:13:41.660Z,25.94
2022-08-22T13:16:15.425Z,26.09
2022-08-22T13:19:07.719Z,26.16
2022-08-22T13:21:43.236Z,26.00
2022-08-22T13:24:16.991Z,25.89
2022-08-22T13:26:57.850Z,25.76
2022-08-22T13:29:39.586Z,25.93
2022-08-22T13:32:21.406Z,25.94
2022-08-22T13:34:55.904Z,25.73
2022-08-22T13:37:45.518Z,25.54
2022-08-22T13:40:29.504Z,25.46
2022-08-22T13:43:04.608Z,25.41
2022-08-22T13:45:34.586Z,25.38
2022-08-22T13:48:08.695Z,25.37
2022-08-22T13:50:54.075Z,25.28
2022-08-22T13:53:58.075Z,25.23
2022-08-22T13:56:44.166Z,25.18
2022-08-22T13:59:50.292Z,25.28
2022-08-22T14:02:30.984Z,25.78
2022-08-22T14:05:06.683Z,26.25
2022-08-22T14:07:38.756Z,27.04
2022-08-22T14:10:14.890Z,28.12
2022-08-22T14:13:04.692Z,28.79
2022-08-22T14:15:45.560Z,28.59
2022-08-22T14:18:30.483Z,28.23
2022-08-22T14:21:27.280Z,27.79
2022-08-22T14:23:58.568Z,27.40
2022-08-22T14:26:32.882Z,27.29
2022-08-22T14:29:02.705Z,27.17
2022-08-22T14:31:30.639Z,27.24
2022-08-22T14:34:01.589Z,27.21
2022-08-22T14:36:34.691Z,27.32
2022-08-22T14:39:35.143Z,27.76
2022-08-22T14:42:15.377Z,28.62
2022-08-22T14:44:52.043Z,29.45
2022-08-22T14:48:14.185Z,30.76
2022-08-22T14:50:54.323Z,32.01
2022-08-22T14:53:26.820Z,32.27
2022-08-22T14:56:19.069Z,31.97
2022-08-22T14:59:05.331Z,31.53
2022-08-22T15:01:51.534Z,31.36
2022-08-22T15:04:25.526Z,32.13
2022-08-22T15:06:58.501Z,33.38
2022-08-22T15:09:41.493Z,34.55
2022-08-22T15:12:20.238Z,35.87
2022-08-22T15:14:52.194Z,36.54
2022-08-22T15:17:51.123Z,37.34
2022-08-22T15:20:36.346Z,36.71
2022-08-22T15:23:20.690Z,35.65
2022-08-22T15:26:00.710Z,37.40
2022-08-22T15:28:29.604Z,38.37
2022-08-22T15:31:17.091Z,36.41
2022-08-22T15:33:46.129Z,33.14
2022-08-22T15:36:18.561Z,31.22
2022-08-22T15:38:51.485Z,30.23
2022-08-22T15:41:37.017Z,29.58
2022-08-22T15:44:32.479Z,28.91
2022-08-22T15:47:02.377Z,28.37
2022-08-22T15:49:34.577Z,28.05
2022-08-22T15:52:01.067Z,27.77
2022-08-22T15:54:44.252Z,27.62
2022-08-22T15:57:24.761Z,27.38
2022-08-22T16:00:28.347Z,27.30
2022-08-22T16:02:56.288Z,27.20
2022-08-22T16:05:36.660Z,27.12
2022-08-22T16:08:52.392Z,27.02
2022-08-22T16:11:33.007Z,26.90
2022-08-22T16:14:21.392Z,26.82
2022-08-22T16:16:56.346Z,26.67
2022-08-22T16:19:25.138Z,26.64
2022-08-22T16:21:51.428Z,26.57
2022-08-22T16:24:17.870Z,26.52
2022-08-22T16:26:44.366Z,26.51
2022-08-22T16:29:13.658Z,26.45
2022-08-22T16:31:44.047Z,26.40
2022-08-22T16:34:16.634Z,26.30
2022-08-22T16:37:23.217Z,26.33
2022-08-22T16:39:53.384Z,26.30
2022-08-22T16:42:24.228Z,26.32
2022-08-22T16:45:02.694Z,26.29
2022-08-22T16:47:38.727Z,26.26
2022-08-22T16:50:09.081Z,26.26
2022-08-22T16:52:50.164Z,26.18
2022-08-22T16:55:28.783Z,26.14
2022-08-22T16:58:06.800Z,26.06
2022-08-22T17:00:36.297Z,26.03
2022-08-22T17:04:00.072Z,25.98
2022-08-22T17:06:53.391Z,25.94
2022-08-22T17:09:44.151Z,25.88
2022-08-22T17:12:10.551Z,25.87
2022-08-22T17:15:00.805Z,25.84
2022-08-22T17:17:54.623Z,25.80
2022-08-22T17:20:46.591Z,25.82
2022-08-22T17:23:49.118Z,25.76
2022-08-22T17:26:40.471Z,25.74
2022-08-22T17:29:32.151Z,25.76
2022-08-22T17:32:20.859Z,25.75
2022-08-22T17:34:56.893Z,25.71
2022-08-22T17:37:48.735Z,25.68
2022-08-22T17:40:37.029Z,25.67
2022-08-22T17:43:23.789Z,25.62
2022-08-22T17:46:03.547Z,25.58
2022-08-22T17:48:47.987Z,25.58
2022-08-22T17:51:28.639Z,25.53
2022-08-22T17:54:05.711Z,25.51
2022-08-22T17:56:44.336Z,25.47
2022-08-22T17:59:20.955Z,25.41
2022-08-22T18:01:59.650Z,25.33
2022-08-22T18:04:34.198Z,25.26
2022-08-22T18:07:37.916Z,25.26
2022-08-22T18:10:19.461Z,25.17
2022-08-22T18:12:57.989Z,25.14
2022-08-22T18:15:57.405Z,25.13
2022-08-22T18:19:14.265Z,25.12
2022-08-22T18:22:05.234Z,24.99
2022-08-22T18:24:57.424Z,24.96
2022-08-22T18:27:54.011Z,24.90
2022-08-22T18:30:28.897Z,24.83
2022-08-22T18:33:28.450Z,24.81
2022-08-22T18:36:15.036Z,24.77
2022-08-22T18:38:54.361Z,24.66
2022-08-22T18:42:09.459Z,24.65
2022-08-22T18:44:37.968Z,24.54
2022-08-22T18:47:18.808Z,24.55
2022-08-22T18:49:48.438Z,24.48
2022-08-22T18:52:19.694Z,24.51
2022-08-22T18:55:16.433Z,24.51
2022-08-22T18:58:02.682Z,24.46
2022-08-22T19:00:46.075Z,24.42
2022-08-22T19:03:31.190Z,24.37
2022-08-22T19:06:22.535Z,24.35
2022-08-22T19:09:20.604Z,24.33
2022-08-22T19:12:06.451Z,24.29
2022-08-22T19:15:10.717Z,24.30
2022-08-22T19:17:55.428Z,24.22
2022-08-22T19:20:54.611Z,24.15
2022-08-22T19:23:36.889Z,24.17
2022-08-22T19:26:29.259Z,24.11
2022-08-22T19:29:21.283Z,24.06
2022-08-22T19:31:57.891Z,24.02
2022-08-22T19:34:30.285Z,23.96
2022-08-22T19:37:32.613Z,23.95
2022-08-22T19:40:06.492Z,23.94
2022-08-22T19:42:36.449Z,23.91
2022-08-22T19:45:20.797Z,23.85
2022-08-22T19:47:58.234Z,23.80
2022-08-22T19:50:31.093Z,23.66
2022-08-22T19:52:57.888Z,23.68
2022-08-22T19:55:46.144Z,23.65
2022-08-22T19:58:35.061Z,23.50
2022-08-22T20:01:11.387Z,23.47
2022-08-22T20:03:49.779Z,23.50
2022-08-22T20:06:44.708Z,23.44
2022-08-22T20:09:52.939Z,23.36
2022-08-22T20:12:33.044Z,23.35
2022-08-22T20:15:16.273Z,23.36
2022-08-22T20:17:43.704Z,23.25
2022-08-22T20:20:35.224Z,23.28
2022-08-22T20:23:12.269Z,23.22
2022-08-22T20:25:44.177Z,23.22
2022-08-22T20:28:29.584Z,23.19
2022-08-22T20:31:01.376Z,23.17
2022-08-22T20:33:38.389Z,23.12
2022-08-22T20:36:27.212Z,23.07
2022-08-22T20:39:00.261Z,23.02
2022-08-22T20:41:37.406Z,22.96
2022-08-22T20:44:22.153Z,22.98
2022-08-22T20:46:53.483Z,22.92
2022-08-22T20:49:25.909Z,22.84
2022-08-22T20:51:54.939Z,22.79
2022-08-22T20:54:24.290Z,22.73
2022-08-22T20:56:54.686Z,22.65
2022-08-22T20:59:21.638Z,22.60
2022-08-22T21:01:53.891Z,22.52
2022-08-22T21:04:21.874Z,22.47
2022-08-22T21:06:59.630Z,22.52
2022-08-22T21:09:44.633Z,22.46
2022-08-22T21:12:11.367Z,22.46
2022-08-22T21:14:45.963Z,22.41
2022-08-22T21:17:29.221Z,22.36
2022-08-22T21:20:21.966Z,22.41
2022-08-22T21:22:49.295Z,22.35
2022-08-22T21:25:15.864Z,22.32
2022-08-22T21:27:46.575Z,22.26
2022-08-22T21:30:23.709Z,22.27
2022-08-22T21:32:55.740Z,22.18
2022-08-22T21:35:30.419Z,22.23
2022-08-22T21:37:58.971Z,22.02
2022-08-22T21:40:35.403Z,22.08
2022-08-22T21:43:09.227Z,22.09
2022-08-22T21:45:45.292Z,22.12
2022-08-22T21:48:33.284Z,22.12
2022-08-22T21:51:39.559Z,22.09
2022-08-22T21:54:21.445Z,22.11
2022-08-22T21:56:49.996Z,22.09
2022-08-22T21:59:51.651Z,22.08
2022-08-22T22:02:27.841Z,22.01
2022-08-22T22:04:55.163Z,22.02
2022-08-22T22:07:24.128Z,22.01
2022-08-22T22:09:54.493Z,21.90
2022-08-22T22:12:21.635Z,21.82
2022-08-22T22:14:49.358Z,21.85
2022-08-22T22:17:17.886Z,21.89
2022-08-22T22:19:44.773Z,21.86
2022-08-22T22:22:11.164Z,21.75
2022-08-22T22:24:37.632Z,21.69
2022-08-22T22:27:05.500Z,21.70
2022-08-22T22:29:33.149Z,21.67
2022-08-22T22:31:59.634Z,21.63
2022-08-22T22:34:26.277Z,21.62
2022-08-22T22:36:53.924Z,21.57
2022-08-22T22:39:20.393Z,21.50
2022-08-22T22:41:46.783Z,21.55
2022-08-22T22:44:13.264Z,21.53
2022-08-22T22:46:39.654Z,21.46
2022-08-22T22:49:06.066Z,21.39
2022-08-22T22:51:32.532Z,21.36
2022-08-22T22:53:59.187Z,21.37
2022-08-22T22:56:26.243Z,21.37
2022-08-22T22:59:01.002Z,21.38
2022-08-22T23:02:00.744Z,21.30
2022-08-22T23:04:27.831Z,21.31
2022-08-22T23:06:54.332Z,21.34
2022-08-22T23:09:20.756Z,21.29
2022-08-22T23:11:54.614Z,21.33
2022-08-22T23:14:21.020Z,21.21
2022-08-22T23:16:48.306Z,21.25
2022-08-22T23:19:16.885Z,21.19
2022-08-22T23:21:45.172Z,21.20
2022-08-22T23:24:13.802Z,21.18
2022-08-22T23:26:40.388Z,21.26
2022-08-22T23:29:07.150Z,21.20
2022-08-22T23:31:38.605Z,21.08
2022-08-22T23:34:13.712Z,21.11
2022-08-22T23:36:43.564Z,21.17
2022-08-22T23:39:10.223Z,21.11
2022-08-22T23:41:37.343Z,21.10
2022-08-22T23:44:05.997Z,21.07
2022-08-22T23:46:32.909Z,21.06
2022-08-22T23:49:01.889Z,21.09
2022-08-22T23:51:28.401Z,21.06
2022-08-22T23:53:56.936Z,21.06
2022-08-22T23:56:40.539Z,21.05
2022-08-22T23:59:13.025Z,20.96
